Time;durP1;ratioP1;P1;durP2;ratioP2;P2;SDS_P1;SDS_P2;PMS_P1;PMS_P2;Temp;Humidity;BMP_temperature;BMP_pressure;BME280_temperature;BME280_humidity;BME280_pressure;Samples;Min_cycle;Max_cycle;Signal;HPM_P1;HPM_P2
2022/04/07 00:00:51;;;;;;;7.57;2.63;;;10.60;99.90;;;;;;5046978;28;20195;-67
2022/04/07 00:03:17;;;;;;;3.63;2.20;;;10.50;99.90;;;;;;5055642;28;20199;-66
2022/04/07 00:05:42;;;;;;;4.87;2.57;;;10.50;99.90;;;;;;5049397;28;20796;-67
2022/04/07 00:08:08;;;;;;;2.97;2.20;;;10.60;99.90;;;;;;5054292;28;20240;-67
2022/04/07 00:10:34;;;;;;;2.70;2.13;;;10.60;99.90;;;;;;5046556;28;20771;-65
2022/04/07 00:13:00;;;;;;;2.97;2.77;;;10.50;99.90;;;;;;5056498;28;21010;-68
2022/04/07 00:15:26;;;;;;;3.10;2.30;;;10.50;99.90;;;;;;5046590;28;20199;-65
2022/04/07 00:17:51;;;;;;;3.57;2.53;;;10.50;99.90;;;;;;5050049;28;20575;-67
2022/04/07 00:20:17;;;;;;;4.00;3.17;;;10.50;99.90;;;;;;5065188;28;20204;-66
2022/04/07 00:22:42;;;;;;;4.43;2.80;;;10.50;99.90;;;;;;5060886;28;20195;-67
2022/04/07 00:25:08;;;;;;;5.37;2.87;;;10.50;99.90;;;;;;5064179;28;20268;-65
2022/04/07 00:27:34;;;;;;;2.77;2.57;;;10.40;99.90;;;;;;5065792;28;20266;-65
2022/04/07 00:29:59;;;;;;;2.53;2.33;;;10.40;99.90;;;;;;5057967;28;20675;-66
2022/04/07 00:32:25;;;;;;;7.63;2.67;;;10.40;99.90;;;;;;5055323;28;20335;-66
2022/04/07 00:34:54;;;;;;;4.23;2.30;;;10.40;99.90;;;;;;5054335;28;20265;-66
2022/04/07 00:37:24;;;;;;;4.07;2.37;;;10.40;99.90;;;;;;5059269;28;20676;-66
2022/04/07 00:39:52;;;;;;;4.50;2.50;;;10.30;99.90;;;;;;5057658;28;20326;-69
2022/04/07 00:42:18;;;;;;;6.17;3.20;;;10.30;99.90;;;;;;5060393;28;20202;-69
2022/04/07 00:44:44;;;;;;;5.60;2.83;;;10.30;99.90;;;;;;5052405;28;20203;-70
2022/04/07 00:47:10;;;;;;;5.73;2.80;;;10.30;99.90;;;;;;5056398;28;20195;-68
2022/04/07 00:49:36;;;;;;;3.60;2.70;;;10.30;99.90;;;;;;5054358;28;20226;-69
2022/04/07 00:52:02;;;;;;;3.97;2.57;;;10.30;99.90;;;;;;5066574;28;20333;-68
2022/04/07 00:54:29;;;;;;;3.43;2.43;;;10.40;99.90;;;;;;5051473;28;20358;-68
2022/04/07 00:56:56;;;;;;;2.73;2.53;;;10.30;99.90;;;;;;5053647;28;20292;-69
2022/04/07 00:59:22;;;;;;;2.50;2.30;;;10.20;99.90;;;;;;5053513;28;20218;-68
2022/04/07 01:01:48;;;;;;;5.13;3.40;;;10.20;99.90;;;;;;5054309;28;20689;-69
2022/04/07 01:04:15;;;;;;;5.30;2.67;;;10.20;99.90;;;;;;5053736;28;20190;-69
2022/04/07 01:06:42;;;;;;;2.90;2.70;;;10.20;99.90;;;;;;5046848;28;20184;-69
2022/04/07 01:09:11;;;;;;;5.10;2.50;;;10.10;99.90;;;;;;5057048;28;20203;-70
2022/04/07 01:11:38;;;;;;;6.57;3.17;;;10.10;99.90;;;;;;5046548;28;20184;-70
2022/04/07 01:14:04;;;;;;;2.83;2.50;;;10.10;99.90;;;;;;5050112;28;20815;-72
2022/04/07 01:16:30;;;;;;;6.00;2.97;;;10.10;99.90;;;;;;5066192;28;20218;-75
2022/04/07 01:18:59;;;;;;;6.80;3.13;;;10.20;99.90;;;;;;5054986;28;20198;-74
2022/04/07 01:21:26;;;;;;;3.53;3.23;;;10.20;99.90;;;;;;5050804;28;20645;-70
2022/04/07 01:24:02;;;;;;;4.30;3.00;;;10.20;99.90;;;;;;5065786;28;20190;-73
2022/04/07 01:26:31;;;;;;;5.33;2.67;;;10.20;99.90;;;;;;5066940;28;20224;-72
2022/04/07 01:28:58;;;;;;;4.70;2.47;;;10.10;99.90;;;;;;5055733;28;20700;-70
2022/04/07 01:31:24;;;;;;;5.37;3.40;;;10.20;99.90;;;;;;5053077;28;20233;-72
2022/04/07 01:33:49;;;;;;;4.37;2.60;;;10.20;99.90;;;;;;5066198;28;20613;-71
2022/04/07 01:36:17;;;;;;;6.37;3.43;;;10.10;99.90;;;;;;5063816;28;20787;-72
2022/04/07 01:38:44;;;;;;;4.23;3.10;;;10.10;99.90;;;;;;5059037;28;20635;-73
2022/04/07 01:41:11;;;;;;;3.00;2.70;;;10.10;99.90;;;;;;5063917;28;20253;-70
2022/04/07 01:43:39;;;;;;;5.87;3.10;;;10.00;99.90;;;;;;5057115;28;20204;-71
2022/04/07 01:46:05;;;;;;;3.30;2.70;;;10.00;99.90;;;;;;5044747;28;20213;-73
2022/04/07 01:48:31;;;;;;;6.17;3.27;;;10.00;99.90;;;;;;5059741;28;20201;-71
2022/04/07 01:50:57;;;;;;;5.50;3.33;;;10.00;99.90;;;;;;5051049;28;20226;-71
2022/04/07 01:53:24;;;;;;;3.60;3.23;;;9.90;99.90;;;;;;5050444;28;20240;-73
2022/04/07 01:55:51;;;;;;;3.00;2.70;;;9.90;99.90;;;;;;5064204;28;20207;-72
2022/04/07 01:58:18;;;;;;;4.67;3.90;;;9.90;99.90;;;;;;5058861;28;20576;-73
2022/04/07 02:00:44;;;;;;;3.17;2.50;;;9.90;99.90;;;;;;5045168;28;20226;-73
2022/04/07 02:03:10;;;;;;;4.23;3.53;;;9.80;99.90;;;;;;5054336;28;20191;-71
2022/04/07 02:05:36;;;;;;;5.30;3.47;;;9.80;99.90;;;;;;5059659;28;20207;-65
2022/04/07 02:08:02;;;;;;;4.90;3.60;;;9.80;99.90;;;;;;5059588;28;20194;-67
2022/04/07 02:10:30;;;;;;;3.73;3.27;;;9.80;99.90;;;;;;5056015;28;20836;-66
2022/04/07 02:12:56;;;;;;;4.37;3.73;;;9.80;99.90;;;;;;5058808;28;20185;-64
2022/04/07 02:15:24;;;;;;;5.73;3.83;;;9.80;99.90;;;;;;5053241;28;20744;-65
2022/04/07 02:17:50;;;;;;;4.00;3.53;;;9.80;99.90;;;;;;5053487;28;20210;-64
2022/04/07 02:20:15;;;;;;;4.60;4.07;;;9.70;99.90;;;;;;5051281;28;20726;-66
2022/04/07 02:22:41;;;;;;;5.33;4.23;;;9.70;99.90;;;;;;5057191;28;20671;-63
2022/04/07 02:25:08;;;;;;;6.77;4.03;;;9.70;99.90;;;;;;5052743;28;20211;-66
2022/04/07 02:27:36;;;;;;;6.90;4.20;;;9.60;99.90;;;;;;5048724;28;20195;-63
2022/04/07 02:30:03;;;;;;;6.47;4.50;;;9.60;99.90;;;;;;5063559;28;20229;-65
2022/04/07 02:32:29;;;;;;;5.93;4.07;;;9.60;99.90;;;;;;5046322;28;20207;-64
2022/04/07 02:34:54;;;;;;;5.33;4.80;;;9.60;99.90;;;;;;5065272;28;20181;-63
2022/04/07 02:37:20;;;;;;;7.27;4.50;;;9.60;99.90;;;;;;5049172;28;20259;-62
2022/04/07 02:39:45;;;;;;;5.93;4.53;;;9.60;99.90;;;;;;5052242;28;20178;-62
2022/04/07 02:42:10;;;;;;;4.80;4.27;;;9.50;99.90;;;;;;5055108;28;20189;-64
2022/04/07 02:44:36;;;;;;;10.17;5.83;;;9.60;99.90;;;;;;5048847;28;20392;-62
2022/04/07 02:47:02;;;;;;;4.43;4.03;;;9.50;99.90;;;;;;5049471;28;20627;-64
2022/04/07 02:49:27;;;;;;;5.80;4.67;;;9.50;99.90;;;;;;5056066;28;20186;-64
2022/04/07 02:51:53;;;;;;;6.50;4.57;;;9.50;99.90;;;;;;5051162;28;20598;-65
2022/04/07 02:54:18;;;;;;;8.23;4.40;;;9.50;99.90;;;;;;5065068;28;20204;-65
2022/04/07 02:56:44;;;;;;;8.07;5.00;;;9.50;99.90;;;;;;5052429;28;20269;-66
2022/04/07 02:59:10;;;;;;;6.50;5.10;;;9.40;99.90;;;;;;5051518;28;20196;-66
2022/04/07 03:01:35;;;;;;;5.60;4.30;;;9.40;99.90;;;;;;5064885;28;20956;-65
2022/04/07 03:04:01;;;;;;;6.23;4.73;;;9.40;99.90;;;;;;5057354;28;20294;-65
2022/04/07 03:06:26;;;;;;;7.67;4.90;;;9.40;99.90;;;;;;5053880;28;20199;-65
2022/04/07 03:08:52;;;;;;;6.73;5.27;;;9.40;99.90;;;;;;5050756;28;20289;-65
2022/04/07 03:11:18;;;;;;;5.73;4.50;;;9.40;99.90;;;;;;5056930;28;20309;-65
2022/04/07 03:13:43;;;;;;;7.53;5.47;;;9.30;99.90;;;;;;5056614;28;20223;-65
2022/04/07 03:16:09;;;;;;;5.87;4.63;;;9.30;99.90;;;;;;5055513;28;20320;-63
2022/04/07 03:18:35;;;;;;;5.77;4.53;;;9.30;99.90;;;;;;5048906;28;20197;-63
2022/04/07 03:21:00;;;;;;;6.73;4.90;;;9.30;99.90;;;;;;5054776;28;20721;-63
2022/04/07 03:23:26;;;;;;;6.83;4.73;;;9.30;99.90;;;;;;5052469;28;20380;-63
2022/04/07 03:25:52;;;;;;;5.10;4.60;;;9.30;99.90;;;;;;5057753;28;20229;-67
2022/04/07 03:28:18;;;;;;;5.77;5.03;;;9.30;99.90;;;;;;5051198;28;20251;-66
2022/04/07 03:30:43;;;;;;;6.43;4.60;;;9.30;99.90;;;;;;5052894;28;20731;-66
2022/04/07 03:33:09;;;;;;;4.67;4.27;;;9.30;99.90;;;;;;5047691;28;20491;-64
2022/04/07 03:35:36;;;;;;;5.40;4.90;;;9.30;99.90;;;;;;5051653;28;20191;-65
2022/04/07 03:38:03;;;;;;;6.00;4.63;;;9.30;99.90;;;;;;5066694;28;20777;-65
2022/04/07 03:40:29;;;;;;;7.70;4.43;;;9.30;99.90;;;;;;5068574;28;20655;-66
2022/04/07 03:42:54;;;;;;;7.87;4.80;;;9.30;99.90;;;;;;5066648;28;20202;-66
2022/04/07 03:45:20;;;;;;;5.83;4.97;;;9.30;99.90;;;;;;5053388;28;20664;-65
2022/04/07 03:47:46;;;;;;;5.60;5.07;;;9.30;99.90;;;;;;5056016;28;20210;-67
2022/04/07 03:50:11;;;;;;;5.83;4.90;;;9.30;99.90;;;;;;5055601;28;20864;-65
2022/04/07 03:52:37;;;;;;;4.93;4.40;;;9.30;99.90;;;;;;5054101;28;20283;-64
2022/04/07 03:55:05;;;;;;;4.50;4.10;;;9.30;99.90;;;;;;5058092;28;20198;-65
2022/04/07 03:57:31;;;;;;;7.27;4.77;;;9.30;99.90;;;;;;5055744;28;20314;-65
2022/04/07 03:59:56;;;;;;;5.53;4.83;;;9.40;99.90;;;;;;5051738;28;20229;-65
2022/04/07 04:02:22;;;;;;;5.27;4.70;;;9.40;99.90;;;;;;5057264;28;20221;-65
2022/04/07 04:04:47;;;;;;;5.40;4.90;;;9.50;99.90;;;;;;5052408;28;20206;-65
2022/04/07 04:07:13;;;;;;;4.83;4.13;;;9.50;99.90;;;;;;5050409;28;20202;-66
2022/04/07 04:09:39;;;;;;;5.73;4.23;;;9.50;99.90;;;;;;5067248;28;20217;-65
2022/04/07 04:12:05;;;;;;;7.70;5.67;;;9.50;99.90;;;;;;5059796;28;20735;-66
2022/04/07 04:14:30;;;;;;;6.93;4.90;;;9.50;99.90;;;;;;5055437;28;20285;-67
2022/04/07 04:16:56;;;;;;;6.07;5.17;;;9.50;99.90;;;;;;5065984;28;20308;-66
2022/04/07 04:19:21;;;;;;;8.13;5.33;;;9.60;99.90;;;;;;5055957;28;20187;-65
2022/04/07 04:21:47;;;;;;;7.37;4.17;;;9.50;99.90;;;;;;5058607;28;20669;-67
2022/04/07 04:24:12;;;;;;;11.40;5.73;;;9.60;99.90;;;;;;5067731;28;20177;-69
2022/04/07 04:26:38;;;;;;;6.27;5.33;;;9.60;99.90;;;;;;5058584;28;20210;-66
2022/04/07 04:29:04;;;;;;;4.80;4.30;;;9.60;99.90;;;;;;5051872;28;20202;-64
2022/04/07 04:31:29;;;;;;;4.93;4.43;;;9.60;99.90;;;;;;5057069;28;20199;-65
2022/04/07 04:33:55;;;;;;;6.67;4.17;;;9.60;99.90;;;;;;5054809;28;20684;-65
2022/04/07 04:36:20;;;;;;;6.00;4.30;;;9.60;99.90;;;;;;5060140;28;20243;-64
2022/04/07 04:38:46;;;;;;;6.73;4.47;;;9.70;99.90;;;;;;5049882;28;20242;-64
2022/04/07 04:41:12;;;;;;;7.03;4.63;;;9.60;99.90;;;;;;5063009;28;20328;-65
2022/04/07 04:43:37;;;;;;;5.97;5.33;;;9.70;99.90;;;;;;5051208;28;20195;-64
2022/04/07 04:46:03;;;;;;;7.00;5.07;;;9.70;99.90;;;;;;5053661;28;20201;-64
2022/04/07 04:48:28;;;;;;;7.53;5.30;;;9.70;99.90;;;;;;5046347;28;20210;-64
2022/04/07 04:50:55;;;;;;;5.93;4.97;;;9.70;99.90;;;;;;5058310;28;20227;-65
2022/04/07 04:53:22;;;;;;;6.97;4.80;;;9.70;99.90;;;;;;5056328;28;20258;-66
2022/04/07 04:55:48;;;;;;;6.23;4.23;;;9.70;99.90;;;;;;5057042;28;20199;-65
2022/04/07 04:58:14;;;;;;;7.97;4.47;;;9.70;99.90;;;;;;5065226;28;20772;-66
2022/04/07 05:00:40;;;;;;;5.00;4.23;;;9.70;99.90;;;;;;5064239;28;20272;-65
2022/04/07 05:03:05;;;;;;;6.50;4.53;;;9.80;99.90;;;;;;5064617;28;20194;-66
2022/04/07 05:05:31;;;;;;;6.27;3.90;;;9.80;99.90;;;;;;5053084;28;20236;-66
2022/04/07 05:07:56;;;;;;;5.57;4.17;;;9.80;99.90;;;;;;5055686;28;20198;-65
2022/04/07 05:10:22;;;;;;;4.67;4.00;;;9.80;99.90;;;;;;5056120;28;20664;-64
2022/04/07 05:12:47;;;;;;;5.83;3.73;;;9.80;99.90;;;;;;5061487;28;20570;-64
2022/04/07 05:15:13;;;;;;;6.50;3.90;;;9.80;99.90;;;;;;5062599;28;20195;-65
2022/04/07 05:17:38;;;;;;;4.50;3.67;;;9.80;99.90;;;;;;5061059;28;20238;-64
2022/04/07 05:20:04;;;;;;;3.80;3.50;;;9.80;99.90;;;;;;5060006;28;20193;-65
2022/04/07 05:22:30;;;;;;;4.63;2.80;;;9.80;99.90;;;;;;5051381;28;20552;-65
2022/04/07 05:24:55;;;;;;;5.90;3.80;;;9.80;99.90;;;;;;5049938;28;20644;-66
2022/04/07 05:27:21;;;;;;;4.67;4.17;;;9.80;99.90;;;;;;5053266;28;20574;-65
2022/04/07 05:29:46;;;;;;;4.60;3.63;;;9.80;99.90;;;;;;5055062;28;20191;-65
2022/04/07 05:32:12;;;;;;;3.77;3.10;;;9.80;99.90;;;;;;5052729;28;20691;-66
2022/04/07 05:34:38;;;;;;;4.23;3.30;;;9.80;99.90;;;;;;5066273;28;20286;-65
2022/04/07 05:37:03;;;;;;;3.17;2.80;;;9.90;99.90;;;;;;5059668;28;20218;-67
2022/04/07 05:39:29;;;;;;;7.33;3.20;;;9.90;99.90;;;;;;5059563;28;20187;-65
2022/04/07 05:41:54;;;;;;;4.90;4.20;;;9.90;99.90;;;;;;5056181;28;20478;-65
2022/04/07 05:44:20;;;;;;;7.10;3.77;;;10.00;99.90;;;;;;5054187;28;20579;-65
2022/04/07 05:46:45;;;;;;;5.23;3.37;;;9.90;99.90;;;;;;5064014;28;20281;-65
2022/04/07 05:49:11;;;;;;;3.47;3.20;;;10.00;99.90;;;;;;5064030;28;20469;-66
2022/04/07 05:51:38;;;;;;;3.37;3.10;;;10.00;99.90;;;;;;5058685;28;20270;-65
2022/04/07 05:54:03;;;;;;;6.57;3.70;;;10.00;99.90;;;;;;5058620;28;20284;-66
2022/04/07 05:56:29;;;;;;;3.50;2.80;;;10.10;99.90;;;;;;5051688;28;20297;-66
2022/04/07 05:58:54;;;;;;;3.70;2.80;;;10.10;99.90;;;;;;5049927;28;20625;-66
2022/04/07 06:01:20;;;;;;;3.67;2.93;;;10.20;99.90;;;;;;5048786;28;20194;-67
2022/04/07 06:03:45;;;;;;;3.23;2.93;;;10.20;99.90;;;;;;5063624;28;20209;-66
2022/04/07 06:06:11;;;;;;;3.43;3.13;;;10.30;99.90;;;;;;5058746;28;21030;-67
2022/04/07 06:08:36;;;;;;;3.13;2.80;;;10.40;99.90;;;;;;5057663;28;20202;-66
2022/04/07 06:11:02;;;;;;;8.30;2.70;;;10.40;99.90;;;;;;5065475;28;20205;-66
2022/04/07 06:13:27;;;;;;;4.73;2.90;;;10.50;99.90;;;;;;5053966;28;20218;-66
2022/04/07 06:15:53;;;;;;;3.90;3.53;;;10.50;99.90;;;;;;5058387;28;20734;-67
2022/04/07 06:18:18;;;;;;;3.80;2.83;;;10.60;99.90;;;;;;5044421;28;20207;-65
2022/04/07 06:20:46;;;;;;;2.93;2.70;;;10.60;99.90;;;;;;5052161;28;20676;-65
2022/04/07 06:23:12;;;;;;;4.20;3.20;;;10.70;99.90;;;;;;5048641;28;20256;-65
2022/04/07 06:25:37;;;;;;;3.93;2.83;;;10.70;99.90;;;;;;5063424;28;20740;-65
2022/04/07 06:28:04;;;;;;;3.47;3.17;;;10.90;99.90;;;;;;5065282;28;20236;-66
2022/04/07 06:30:30;;;;;;;3.83;3.03;;;10.90;99.90;;;;;;5053348;28;20265;-64
2022/04/07 06:32:56;;;;;;;3.97;2.40;;;11.00;99.90;;;;;;5052570;28;20190;-65
2022/04/07 06:35:22;;;;;;;3.70;3.20;;;11.10;99.90;;;;;;5054392;28;20649;-65
2022/04/07 06:37:53;;;;;;;2.90;2.50;;;11.10;99.90;;;;;;5060989;28;20214;-65
2022/04/07 06:40:20;;;;;;;2.67;2.47;;;11.10;99.90;;;;;;5048698;28;20462;-66
2022/04/07 06:42:47;;;;;;;2.00;1.90;;;11.10;99.90;;;;;;5052697;28;20217;-65
2022/04/07 06:45:12;;;;;;;4.63;2.93;;;11.20;99.90;;;;;;5050619;28;20194;-66
2022/04/07 06:47:41;;;;;;;2.50;2.30;;;11.10;99.90;;;;;;5054950;28;20288;-68
2022/04/07 06:50:11;;;;;;;2.40;2.00;;;11.20;99.90;;;;;;5053244;28;20218;-64
2022/04/07 06:52:36;;;;;;;2.93;2.63;;;11.20;99.90;;;;;;5052723;28;20248;-66
2022/04/07 06:55:03;;;;;;;2.93;2.47;;;11.20;99.90;;;;;;5056262;28;20821;-66
2022/04/07 06:57:28;;;;;;;3.10;2.60;;;11.20;99.90;;;;;;5056151;28;20221;-66
2022/04/07 06:59:54;;;;;;;4.20;2.83;;;11.20;99.90;;;;;;5050939;28;20195;-66
2022/04/07 07:02:19;;;;;;;2.53;2.17;;;11.30;99.90;;;;;;5057550;28;20180;-64
2022/04/07 07:04:44;;;;;;;2.43;2.23;;;11.30;99.90;;;;;;5054712;28;20192;-65
2022/04/07 07:07:11;;;;;;;3.23;2.60;;;11.30;99.90;;;;;;5056524;28;20569;-65
2022/04/07 07:09:37;;;;;;;2.90;2.60;;;11.30;99.90;;;;;;5059546;28;20237;-67
2022/04/07 07:12:03;;;;;;;2.57;2.37;;;11.30;99.90;;;;;;5056694;28;20681;-65
2022/04/07 07:14:29;;;;;;;2.70;2.50;;;11.30;99.90;;;;;;5064244;28;20210;-68
2022/04/07 07:16:54;;;;;;;2.60;2.40;;;11.40;99.90;;;;;;5062079;28;20214;-67
2022/04/07 07:19:26;;;;;;;2.90;2.60;;;11.50;99.90;;;;;;5057566;28;20221;-70
2022/04/07 07:21:55;;;;;;;4.00;2.33;;;11.50;99.90;;;;;;5052831;28;20199;-67
2022/04/07 07:24:21;;;;;;;3.07;2.70;;;11.60;99.90;;;;;;5052937;28;20195;-65
2022/04/07 07:26:46;;;;;;;2.80;2.57;;;11.70;99.90;;;;;;5043539;28;20709;-65
2022/04/07 07:29:12;;;;;;;2.90;2.33;;;11.70;99.90;;;;;;5055949;28;20205;-65
2022/04/07 07:31:37;;;;;;;3.83;2.20;;;11.80;99.90;;;;;;5047192;28;20214;-64
2022/04/07 07:34:06;;;;;;;2.13;1.93;;;11.80;99.90;;;;;;5055311;28;20192;-66
2022/04/07 07:36:31;;;;;;;2.87;2.00;;;11.90;99.90;;;;;;5042704;28;20579;-66
2022/04/07 07:38:57;;;;;;;2.47;2.17;;;11.90;99.90;;;;;;5050407;28;20406;-69
2022/04/07 07:41:23;;;;;;;3.10;1.93;;;11.90;99.90;;;;;;5059470;28;20200;-67
2022/04/07 07:43:49;;;;;;;3.47;2.10;;;12.00;99.90;;;;;;5060148;28;20211;-67
2022/04/07 07:46:16;;;;;;;2.17;1.97;;;12.10;99.90;;;;;;5061928;28;20750;-66
2022/04/07 07:48:42;;;;;;;2.63;1.60;;;12.10;99.90;;;;;;5057444;28;20232;-65
2022/04/07 07:51:08;;;;;;;3.37;1.63;;;12.20;99.90;;;;;;5054521;28;20237;-64
2022/04/07 07:53:33;;;;;;;1.80;1.70;;;12.30;99.90;;;;;;5047392;28;20192;-63
2022/04/07 07:55:59;;;;;;;1.73;1.53;;;12.40;99.90;;;;;;5062635;28;20296;-64
2022/04/07 07:58:25;;;;;;;3.90;2.00;;;12.50;99.90;;;;;;5057215;28;20197;-64
2022/04/07 08:00:50;;;;;;;1.87;1.73;;;12.50;99.90;;;;;;5049979;28;20200;-66
2022/04/07 08:03:16;;;;;;;1.97;1.40;;;12.50;99.90;;;;;;5063784;28;20202;-66
2022/04/07 08:05:42;;;;;;;1.57;1.47;;;12.50;99.90;;;;;;5055380;28;20243;-67
2022/04/07 08:08:08;;;;;;;3.67;1.57;;;12.50;99.90;;;;;;5062385;28;20287;-66
2022/04/07 08:10:34;;;;;;;2.10;1.70;;;12.50;99.90;;;;;;5057747;28;20212;-66
2022/04/07 08:12:59;;;;;;;2.30;1.70;;;12.50;99.90;;;;;;5066491;28;20552;-67
2022/04/07 08:15:25;;;;;;;2.23;2.03;;;12.60;99.90;;;;;;5055795;28;20201;-68
2022/04/07 08:17:51;;;;;;;2.57;2.00;;;12.70;99.90;;;;;;5064501;28;20210;-66
2022/04/07 08:20:17;;;;;;;3.20;1.70;;;12.80;99.90;;;;;;5064921;28;20206;-67
2022/04/07 08:22:43;;;;;;;1.70;1.60;;;12.80;99.90;;;;;;5058413;28;20175;-66
2022/04/07 08:25:09;;;;;;;2.37;1.33;;;13.00;99.90;;;;;;5057516;28;20794;-68
2022/04/07 08:27:34;;;;;;;2.27;1.47;;;13.10;99.90;;;;;;5055067;28;20190;-66
2022/04/07 08:30:00;;;;;;;2.27;1.10;;;13.10;99.90;;;;;;5064483;28;20624;-66
2022/04/07 08:32:26;;;;;;;1.43;1.33;;;13.10;99.90;;;;;;5057553;28;20186;-67
2022/04/07 08:34:52;;;;;;;1.47;1.37;;;13.00;99.90;;;;;;5052105;28;20197;-65
2022/04/07 08:37:17;;;;;;;2.20;1.63;;;13.10;99.90;;;;;;5067941;28;20198;-66
2022/04/07 08:39:43;;;;;;;1.57;1.47;;;13.30;99.90;;;;;;5058811;28;20200;-66
2022/04/07 08:42:08;;;;;;;1.90;1.63;;;13.30;99.90;;;;;;5054097;28;20208;-66
2022/04/07 08:44:34;;;;;;;1.83;1.53;;;13.30;99.90;;;;;;5067272;28;20276;-68
2022/04/07 08:47:01;;;;;;;1.93;1.30;;;13.20;99.90;;;;;;5059667;28;20205;-66
2022/04/07 08:49:30;;;;;;;1.07;1.07;;;13.20;99.90;;;;;;5053652;28;20228;-66
2022/04/07 08:51:55;;;;;;;1.37;1.33;;;13.30;99.90;;;;;;5064259;28;20262;-67
2022/04/07 08:54:22;;;;;;;2.23;1.80;;;13.40;99.90;;;;;;5047185;28;20213;-68
2022/04/07 08:56:48;;;;;;;1.20;1.10;;;13.40;99.90;;;;;;5064679;28;20239;-66
2022/04/07 08:59:14;;;;;;;3.53;1.30;;;13.30;99.90;;;;;;5054716;28;20194;-68
2022/04/07 09:01:40;;;;;;;3.17;1.30;;;13.30;99.90;;;;;;5052764;28;20204;-65
2022/04/07 09:04:05;;;;;;;1.63;1.23;;;13.30;99.90;;;;;;5057891;28;20825;-68
2022/04/07 09:06:34;;;;;;;1.47;1.37;;;13.30;99.90;;;;;;5055010;28;20208;-65
2022/04/07 09:09:14;;;;;;;1.60;1.20;;;13.30;99.90;;;;;;5066976;28;20193;-67
2022/04/07 09:11:44;;;;;;;1.20;1.00;;;13.40;99.90;;;;;;5054571;28;20209;-69
2022/04/07 09:14:10;;;;;;;0.93;0.93;;;13.40;99.90;;;;;;5051777;28;20259;-66
2022/04/07 09:16:38;;;;;;;2.73;1.30;;;13.40;99.90;;;;;;5061444;28;20221;-67
2022/04/07 09:19:04;;;;;;;0.83;0.80;;;13.50;99.90;;;;;;5052712;28;20197;-67
2022/04/07 09:21:31;;;;;;;1.17;1.07;;;13.50;99.90;;;;;;5050663;28;20205;-67
2022/04/07 09:23:58;;;;;;;1.27;1.00;;;13.60;99.90;;;;;;5055412;28;20212;-64
2022/04/07 09:26:24;;;;;;;0.70;0.70;;;13.60;99.90;;;;;;5051811;28;20895;-68
2022/04/07 09:28:55;;;;;;;0.70;0.70;;;13.60;99.90;;;;;;5066308;28;20188;-67
2022/04/07 09:31:22;;;;;;;2.93;1.00;;;13.50;99.90;;;;;;5060630;28;20737;-69
2022/04/07 09:33:55;;;;;;;1.83;0.90;;;13.60;99.90;;;;;;5053692;28;20287;-67
2022/04/07 09:36:22;;;;;;;1.43;0.93;;;13.60;99.90;;;;;;5064599;28;20220;-63
2022/04/07 09:38:53;;;;;;;0.83;0.83;;;13.80;99.90;;;;;;5065901;28;20210;-66
2022/04/07 09:41:20;;;;;;;0.67;0.67;;;13.80;99.80;;;;;;5054249;28;20217;-65
2022/04/07 09:43:57;;;;;;;1.10;0.90;;;13.90;99.80;;;;;;5058517;28;20286;-66
2022/04/07 09:46:24;;;;;;;0.73;0.73;;;13.80;99.50;;;;;;5057125;28;20750;-66
2022/04/07 09:49:07;;;;;;;1.23;0.83;;;13.70;99.70;;;;;;5048972;28;20584;-67
2022/04/07 09:51:46;;;;;;;1.10;0.80;;;13.80;99.60;;;;;;5064184;28;20228;-67
2022/04/07 09:54:13;;;;;;;0.60;0.60;;;13.80;99.40;;;;;;5063889;28;20225;-67
2022/04/07 09:56:39;;;;;;;1.23;0.70;;;13.70;99.30;;;;;;5044706;28;20217;-67
2022/04/07 09:59:06;;;;;;;1.33;0.80;;;13.80;99.00;;;;;;5056279;28;20267;-67
2022/04/07 10:01:38;;;;;;;1.00;0.80;;;13.80;98.80;;;;;;5055292;28;20204;-71
2022/04/07 10:04:05;;;;;;;1.07;0.90;;;13.80;98.40;;;;;;5064147;28;20192;-69
2022/04/07 10:06:33;;;;;;;1.43;0.90;;;13.70;98.50;;;;;;5058688;28;20199;-70
2022/04/07 10:09:01;;;;;;;0.73;0.73;;;13.60;98.80;;;;;;5054096;28;20300;-67
2022/04/07 10:11:32;;;;;;;1.10;1.00;;;13.70;98.90;;;;;;5060810;28;20671;-68
2022/04/07 10:13:58;;;;;;;1.43;1.07;;;13.80;99.00;;;;;;5054467;28;20228;-68
2022/04/07 10:16:25;;;;;;;1.00;1.00;;;13.90;98.80;;;;;;5053943;28;20252;-66
2022/04/07 10:18:57;;;;;;;1.23;0.80;;;14.00;98.40;;;;;;5065663;28;20396;-67
2022/04/07 10:21:48;;;;;;;1.23;1.13;;;14.00;98.40;;;;;;5059137;28;20202;-67
2022/04/07 10:24:20;;;;;;;2.53;0.80;;;13.90;98.50;;;;;;5063687;28;20559;-67
2022/04/07 10:26:46;;;;;;;1.27;1.20;;;13.80;98.60;;;;;;5060822;28;20266;-67
2022/04/07 10:29:22;;;;;;;1.73;0.90;;;13.80;98.70;;;;;;5047935;28;20227;-66
2022/04/07 10:32:23;;;;;;;0.70;0.70;;;13.70;98.80;;;;;;5055665;28;20206;-67
2022/04/07 10:34:57;;;;;;;0.97;0.60;;;13.80;99.30;;;;;;5001332;28;20310;-67
2022/04/07 10:37:43;;;;;;;0.90;0.90;;;13.80;99.10;;;;;;5042906;28;20203;-67
2022/04/07 10:40:48;;;;;;;0.90;0.90;;;13.90;98.90;;;;;;5049936;28;20198;-67
2022/04/07 10:43:14;;;;;;;1.90;0.80;;;13.90;98.20;;;;;;5064995;28;20625;-66
2022/04/07 10:45:41;;;;;;;1.10;1.00;;;13.90;98.40;;;;;;5054600;28;20201;-67
2022/04/07 10:48:31;;;;;;;1.00;0.87;;;13.80;98.30;;;;;;5053972;28;20197;-67
2022/04/07 10:51:10;;;;;;;4.33;1.00;;;13.80;99.00;;;;;;5060282;28;20264;-67
2022/04/07 10:54:00;;;;;;;0.80;0.80;;;13.70;99.90;;;;;;5058019;28;20194;-67
2022/04/07 10:56:34;;;;;;;1.80;1.13;;;13.60;99.90;;;;;;5057592;28;20227;-67
2022/04/07 10:59:22;;;;;;;3.30;1.00;;;13.40;99.90;;;;;;5058987;28;20182;-67
2022/04/07 11:02:04;;;;;;;0.77;0.77;;;13.30;99.90;;;;;;5051775;28;20221;-67
2022/04/07 11:04:35;;;;;;;1.20;1.10;;;13.10;99.90;;;;;;5046473;28;20319;-67
2022/04/07 11:07:10;;;;;;;2.43;1.43;;;13.00;99.90;;;;;;5061885;28;20693;-70
2022/04/07 11:09:46;;;;;;;5.83;1.87;;;13.00;99.90;;;;;;5054665;28;20198;-69
2022/04/07 11:12:37;;;;;;;4.30;1.10;;;13.00;99.90;;;;;;5051921;28;20543;-70
2022/04/07 11:15:03;;;;;;;1.80;1.60;;;13.00;99.90;;;;;;5061143;28;20211;-69
2022/04/07 11:17:41;;;;;;;4.63;1.43;;;13.10;99.90;;;;;;5059790;28;20286;-69
2022/04/07 11:20:16;;;;;;;1.10;1.00;;;13.10;99.90;;;;;;5058766;28;20684;-69
2022/04/07 11:23:01;;;;;;;1.33;0.90;;;13.10;99.90;;;;;;5054985;28;20273;-67
2022/04/07 11:25:37;;;;;;;2.07;1.20;;;13.30;99.90;;;;;;5060071;28;20214;-68
2022/04/07 11:28:22;;;;;;;1.60;1.20;;;13.30;99.90;;;;;;5049690;28;20238;-68
2022/04/07 11:30:56;;;;;;;2.23;1.10;;;13.40;99.90;;;;;;5052010;28;20212;-65
2022/04/07 11:33:31;;;;;;;1.50;0.90;;;13.30;99.90;;;;;;5064998;28;20191;-66
2022/04/07 11:35:59;;;;;;;1.10;0.87;;;13.40;99.90;;;;;;5053059;28;20206;-64
2022/04/07 11:38:47;;;;;;;0.70;0.70;;;13.40;99.90;;;;;;5056121;28;20220;-70
2022/04/07 11:41:14;;;;;;;0.97;0.80;;;13.40;99.90;;;;;;5051656;28;20630;-67
2022/04/07 11:43:50;;;;;;;2.00;1.03;;;13.40;99.90;;;;;;5068283;28;20217;-69
2022/04/07 11:46:25;;;;;;;0.83;0.83;;;13.50;99.90;;;;;;5066647;28;20207;-69
2022/04/07 11:48:51;;;;;;;1.13;0.80;;;13.70;99.90;;;;;;5064785;28;20212;-68
2022/04/07 11:51:17;;;;;;;1.20;0.83;;;13.50;99.90;;;;;;5065655;28;20252;-66
2022/04/07 11:53:51;;;;;;;3.43;1.20;;;13.30;99.90;;;;;;5067876;28;20225;-61
2022/04/07 11:56:32;;;;;;;1.30;1.07;;;13.00;99.90;;;;;;5059298;28;20205;-61
2022/04/07 11:59:10;;;;;;;2.80;0.77;;;12.70;99.90;;;;;;5065911;28;20184;-73
2022/04/07 12:01:46;;;;;;;2.37;0.90;;;12.50;99.90;;;;;;5061890;28;20200;-72
2022/04/07 12:04:13;;;;;;;1.77;0.70;;;12.40;99.90;;;;;;5057679;28;20666;-83
2022/04/07 12:06:40;;;;;;;0.60;0.60;;;12.50;99.90;;;;;;5064560;28;20201;-74
2022/04/07 12:09:07;;;;;;;3.87;1.17;;;12.50;99.90;;;;;;5060654;28;20198;-78
2022/04/07 12:11:35;;;;;;;0.63;0.63;;;12.50;99.90;;;;;;5060873;28;20305;-74
2022/04/07 12:14:05;;;;;;;1.37;1.13;;;12.40;99.90;;;;;;5068689;28;20201;-75
2022/04/07 12:16:31;;;;;;;1.47;0.83;;;12.40;99.90;;;;;;5068100;28;20220;-81
2022/04/07 12:18:59;;;;;;;1.07;0.80;;;12.30;99.90;;;;;;5061925;28;20215;-77
2022/04/07 12:21:26;;;;;;;0.80;0.80;;;12.30;99.90;;;;;;5054193;28;20205;-79
2022/04/07 12:24:13;;;;;;;0.80;0.80;;;12.30;99.90;;;;;;5062046;28;20201;-77
2022/04/07 12:26:47;;;;;;;0.93;0.80;;;12.40;99.90;;;;;;5062848;28;20724;-80
2022/04/07 12:29:14;;;;;;;0.60;0.60;;;12.30;99.90;;;;;;5060440;28;20193;-77
2022/04/07 12:31:40;;;;;;;1.20;1.10;;;12.20;99.90;;;;;;5063692;28;20204;-82
2022/04/07 12:34:12;;;;;;;1.37;0.70;;;12.20;99.90;;;;;;5064345;28;20287;-81
2022/04/07 12:36:39;;;;;;;0.83;0.70;;;12.30;99.90;;;;;;5055243;28;20214;-80
2022/04/07 12:39:15;;;;;;;2.07;1.23;;;12.30;99.90;;;;;;5064990;28;20252;-77
2022/04/07 12:41:51;;;;;;;1.47;0.70;;;12.40;99.90;;;;;;5063294;28;20656;-80
2022/04/07 12:44:22;;;;;;;0.70;0.70;;;12.40;99.90;;;;;;5070092;28;20701;-77
2022/04/07 12:46:57;;;;;;;0.60;0.60;;;12.40;99.90;;;;;;5066536;28;20206;-79
2022/04/07 12:49:24;;;;;;;0.70;0.70;;;12.30;99.90;;;;;;5064619;28;20671;-85
2022/04/07 12:52:01;;;;;;;1.17;0.60;;;12.20;99.90;;;;;;5049431;28;20221;-80
2022/04/07 12:54:26;;;;;;;3.13;0.90;;;12.10;99.90;;;;;;5065884;28;20936;-80